sensor_id;sensor_type;location;lat;lon;timestamp;P1;durP1;ratioP1;P2;durP2;ratioP2
10313;SDS011;5202;49.138;10.090;2023-01-25T00:00:21;21.80;;;11.83;;
10313;SDS011;5202;49.138;10.090;2023-01-25T00:02:53;17.57;;;11.03;;
10313;SDS011;5202;49.138;10.090;2023-01-25T00:05:21;18.23;;;10.70;;
10313;SDS011;5202;49.138;10.090;2023-01-25T00:07:49;19.53;;;11.03;;
10313;SDS011;5202;49.138;10.090;2023-01-25T00:10:19;17.37;;;10.23;;
10313;SDS011;5202;49.138;10.090;2023-01-25T00:12:47;18.73;;;11.33;;
10313;SDS011;5202;49.138;10.090;2023-01-25T00:15:20;18.53;;;10.60;;
10313;SDS011;5202;49.138;10.090;2023-01-25T00:17:48;19.57;;;11.37;;
10313;SDS011;5202;49.138;10.090;2023-01-25T00:20:17;17.57;;;10.27;;
10313;SDS011;5202;49.138;10.090;2023-01-25T00:22:45;17.20;;;10.73;;
10313;SDS011;5202;49.138;10.090;2023-01-25T00:25:13;18.90;;;11.37;;
10313;SDS011;5202;49.138;10.090;2023-01-25T00:27:43;16.43;;;10.63;;
10313;SDS011;5202;49.138;10.090;2023-01-25T00:30:15;17.80;;;11.07;;
10313;SDS011;5202;49.138;10.090;2023-01-25T00:32:48;18.77;;;11.77;;
10313;SDS011;5202;49.138;10.090;2023-01-25T00:35:28;18.63;;;11.10;;
10313;SDS011;5202;49.138;10.090;2023-01-25T00:37:57;18.13;;;11.07;;
10313;SDS011;5202;49.138;10.090;2023-01-25T00:40:29;17.87;;;11.27;;
10313;SDS011;5202;49.138;10.090;2023-01-25T00:42:59;17.33;;;10.37;;
10313;SDS011;5202;49.138;10.090;2023-01-25T00:45:30;17.30;;;9.70;;
10313;SDS011;5202;49.138;10.090;2023-01-25T00:47:58;17.90;;;10.43;;
10313;SDS011;5202;49.138;10.090;2023-01-25T00:50:26;18.43;;;10.87;;
10313;SDS011;5202;49.138;10.090;2023-01-25T00:52:55;17.80;;;10.80;;
10313;SDS011;5202;49.138;10.090;2023-01-25T00:55:24;17.50;;;10.13;;
10313;SDS011;5202;49.138;10.090;2023-01-25T00:57:52;18.43;;;10.83;;
10313;SDS011;5202;49.138;10.090;2023-01-25T01:00:22;18.10;;;10.73;;
10313;SDS011;5202;49.138;10.090;2023-01-25T01:02:50;17.53;;;11.13;;
10313;SDS011;5202;49.138;10.090;2023-01-25T01:05:19;16.87;;;11.20;;
10313;SDS011;5202;49.138;10.090;2023-01-25T01:07:48;17.13;;;10.70;;
10313;SDS011;5202;49.138;10.090;2023-01-25T01:10:17;17.30;;;11.10;;
10313;SDS011;5202;49.138;10.090;2023-01-25T01:12:45;20.90;;;11.20;;
10313;SDS011;5202;49.138;10.090;2023-01-25T01:15:14;17.37;;;10.70;;
10313;SDS011;5202;49.138;10.090;2023-01-25T01:17:43;19.17;;;10.77;;
10313;SDS011;5202;49.138;10.090;2023-01-25T01:20:12;20.07;;;10.90;;
10313;SDS011;5202;49.138;10.090;2023-01-25T01:22:41;19.20;;;11.73;;
10313;SDS011;5202;49.138;10.090;2023-01-25T01:25:09;18.17;;;11.00;;
10313;SDS011;5202;49.138;10.090;2023-01-25T01:27:38;18.93;;;11.67;;
10313;SDS011;5202;49.138;10.090;2023-01-25T01:30:07;19.20;;;10.93;;
10313;SDS011;5202;49.138;10.090;2023-01-25T01:32:37;19.67;;;11.73;;
10313;SDS011;5202;49.138;10.090;2023-01-25T01:35:07;19.17;;;11.07;;
10313;SDS011;5202;49.138;10.090;2023-01-25T01:37:36;20.03;;;11.83;;
10313;SDS011;5202;49.138;10.090;2023-01-25T01:40:09;20.90;;;11.47;;
10313;SDS011;5202;49.138;10.090;2023-01-25T01:42:57;18.70;;;11.47;;
10313;SDS011;5202;49.138;10.090;2023-01-25T01:45:47;19.50;;;12.40;;
10313;SDS011;5202;49.138;10.090;2023-01-25T01:48:30;19.57;;;11.50;;
10313;SDS011;5202;49.138;10.090;2023-01-25T01:51:08;19.40;;;11.20;;
10313;SDS011;5202;49.138;10.090;2023-01-25T01:53:45;19.03;;;10.93;;
10313;SDS011;5202;49.138;10.090;2023-01-25T01:56:21;20.40;;;11.83;;
10313;SDS011;5202;49.138;10.090;2023-01-25T01:58:56;21.63;;;11.30;;
10313;SDS011;5202;49.138;10.090;2023-01-25T02:01:26;19.83;;;12.43;;
10313;SDS011;5202;49.138;10.090;2023-01-25T02:03:58;23.50;;;12.50;;
10313;SDS011;5202;49.138;10.090;2023-01-25T02:06:30;21.13;;;12.03;;
10313;SDS011;5202;49.138;10.090;2023-01-25T02:09:06;23.30;;;12.63;;
10313;SDS011;5202;49.138;10.090;2023-01-25T02:11:35;22.37;;;12.10;;
10313;SDS011;5202;49.138;10.090;2023-01-25T02:14:05;23.43;;;12.60;;
10313;SDS011;5202;49.138;10.090;2023-01-25T02:16:34;20.30;;;12.13;;
10313;SDS011;5202;49.138;10.090;2023-01-25T02:19:02;22.57;;;12.63;;
10313;SDS011;5202;49.138;10.090;2023-01-25T02:21:36;24.83;;;12.57;;
10313;SDS011;5202;49.138;10.090;2023-01-25T02:24:08;26.70;;;13.43;;
10313;SDS011;5202;49.138;10.090;2023-01-25T02:26:45;23.60;;;12.17;;
10313;SDS011;5202;49.138;10.090;2023-01-25T02:29:13;22.30;;;12.27;;
10313;SDS011;5202;49.138;10.090;2023-01-25T02:35:49;19.33;;;11.27;;
10313;SDS011;5202;49.138;10.090;2023-01-25T02:38:22;19.00;;;10.87;;
10313;SDS011;5202;49.138;10.090;2023-01-25T02:40:53;16.50;;;10.20;;
10313;SDS011;5202;49.138;10.090;2023-01-25T02:43:31;20.03;;;11.20;;
10313;SDS011;5202;49.138;10.090;2023-01-25T02:46:04;17.23;;;9.47;;
10313;SDS011;5202;49.138;10.090;2023-01-25T02:48:43;18.33;;;10.30;;
10313;SDS011;5202;49.138;10.090;2023-01-25T02:51:11;17.60;;;10.33;;
10313;SDS011;5202;49.138;10.090;2023-01-25T02:53:39;17.77;;;10.17;;
10313;SDS011;5202;49.138;10.090;2023-01-25T02:56:08;18.63;;;10.77;;
10313;SDS011;5202;49.138;10.090;2023-01-25T02:58:37;17.40;;;9.57;;
10313;SDS011;5202;49.138;10.090;2023-01-25T03:01:05;16.53;;;9.63;;
10313;SDS011;5202;49.138;10.090;2023-01-25T03:03:48;17.40;;;10.03;;
10313;SDS011;5202;49.138;10.090;2023-01-25T03:06:18;15.07;;;9.27;;
10313;SDS011;5202;49.138;10.090;2023-01-25T03:08:46;18.53;;;9.80;;
10313;SDS011;5202;49.138;10.090;2023-01-25T03:11:15;19.00;;;9.90;;
10313;SDS011;5202;49.138;10.090;2023-01-25T03:13:45;21.33;;;9.73;;
10313;SDS011;5202;49.138;10.090;2023-01-25T03:16:13;19.57;;;10.03;;
10313;SDS011;5202;49.138;10.090;2023-01-25T03:18:43;20.20;;;11.23;;
10313;SDS011;5202;49.138;10.090;2023-01-25T03:21:12;19.27;;;10.40;;
10313;SDS011;5202;49.138;10.090;2023-01-25T03:23:43;16.83;;;10.23;;
10313;SDS011;5202;49.138;10.090;2023-01-25T03:26:18;19.67;;;11.13;;
10313;SDS011;5202;49.138;10.090;2023-01-25T03:29:05;18.37;;;10.20;;
10313;SDS011;5202;49.138;10.090;2023-01-25T03:31:37;18.67;;;9.33;;
10313;SDS011;5202;49.138;10.090;2023-01-25T03:34:05;16.23;;;8.70;;
10313;SDS011;5202;49.138;10.090;2023-01-25T03:36:37;17.83;;;9.77;;
10313;SDS011;5202;49.138;10.090;2023-01-25T03:39:05;16.97;;;9.90;;
10313;SDS011;5202;49.138;10.090;2023-01-25T03:41:39;15.73;;;8.63;;
10313;SDS011;5202;49.138;10.090;2023-01-25T03:44:11;13.10;;;7.93;;
10313;SDS011;5202;49.138;10.090;2023-01-25T03:46:41;11.80;;;7.03;;
10313;SDS011;5202;49.138;10.090;2023-01-25T03:49:10;9.30;;;6.50;;
10313;SDS011;5202;49.138;10.090;2023-01-25T03:51:38;9.90;;;6.53;;
10313;SDS011;5202;49.138;10.090;2023-01-25T03:54:07;10.50;;;6.23;;
10313;SDS011;5202;49.138;10.090;2023-01-25T03:56:35;11.67;;;7.10;;
10313;SDS011;5202;49.138;10.090;2023-01-25T03:59:10;13.60;;;7.53;;
10313;SDS011;5202;49.138;10.090;2023-01-25T04:01:39;14.33;;;7.93;;
10313;SDS011;5202;49.138;10.090;2023-01-25T04:04:08;13.90;;;7.83;;
10313;SDS011;5202;49.138;10.090;2023-01-25T04:06:38;16.77;;;8.27;;
10313;SDS011;5202;49.138;10.090;2023-01-25T04:09:06;13.27;;;7.87;;
10313;SDS011;5202;49.138;10.090;2023-01-25T04:11:41;15.37;;;8.60;;
10313;SDS011;5202;49.138;10.090;2023-01-25T04:14:12;13.50;;;7.37;;
10313;SDS011;5202;49.138;10.090;2023-01-25T04:16:53;15.27;;;8.63;;
10313;SDS011;5202;49.138;10.090;2023-01-25T04:19:41;14.03;;;8.00;;
10313;SDS011;5202;49.138;10.090;2023-01-25T04:22:12;14.90;;;8.30;;
10313;SDS011;5202;49.138;10.090;2023-01-25T04:24:41;14.20;;;7.87;;
10313;SDS011;5202;49.138;10.090;2023-01-25T04:27:11;19.20;;;8.33;;
10313;SDS011;5202;49.138;10.090;2023-01-25T04:29:51;12.23;;;7.87;;
10313;SDS011;5202;49.138;10.090;2023-01-25T04:32:22;10.57;;;6.33;;
10313;SDS011;5202;49.138;10.090;2023-01-25T04:34:51;12.17;;;7.17;;
10313;SDS011;5202;49.138;10.090;2023-01-25T04:37:22;11.90;;;7.37;;
10313;SDS011;5202;49.138;10.090;2023-01-25T04:39:55;13.97;;;7.80;;
10313;SDS011;5202;49.138;10.090;2023-01-25T04:42:24;13.00;;;8.20;;
10313;SDS011;5202;49.138;10.090;2023-01-25T04:44:56;14.40;;;7.93;;
10313;SDS011;5202;49.138;10.090;2023-01-25T04:47:24;12.37;;;7.60;;
10313;SDS011;5202;49.138;10.090;2023-01-25T04:49:53;13.17;;;7.07;;
10313;SDS011;5202;49.138;10.090;2023-01-25T04:52:23;10.60;;;6.40;;
10313;SDS011;5202;49.138;10.090;2023-01-25T04:54:51;9.17;;;6.20;;
10313;SDS011;5202;49.138;10.090;2023-01-25T04:57:20;12.53;;;7.23;;
10313;SDS011;5202;49.138;10.090;2023-01-25T04:59:50;11.10;;;6.50;;
10313;SDS011;5202;49.138;10.090;2023-01-25T05:02:22;10.77;;;6.67;;
10313;SDS011;5202;49.138;10.090;2023-01-25T05:04:51;11.17;;;7.00;;
10313;SDS011;5202;49.138;10.090;2023-01-25T05:07:20;11.17;;;7.17;;
10313;SDS011;5202;49.138;10.090;2023-01-25T05:09:48;10.40;;;6.37;;
10313;SDS011;5202;49.138;10.090;2023-01-25T05:12:18;9.63;;;6.30;;
10313;SDS011;5202;49.138;10.090;2023-01-25T05:14:53;12.10;;;7.00;;
10313;SDS011;5202;49.138;10.090;2023-01-25T05:17:23;11.43;;;6.60;;
10313;SDS011;5202;49.138;10.090;2023-01-25T05:19:51;9.10;;;5.90;;
10313;SDS011;5202;49.138;10.090;2023-01-25T05:22:23;8.63;;;5.73;;
10313;SDS011;5202;49.138;10.090;2023-01-25T05:24:52;8.87;;;6.07;;
10313;SDS011;5202;49.138;10.090;2023-01-25T05:27:23;8.80;;;5.67;;
10313;SDS011;5202;49.138;10.090;2023-01-25T05:29:53;11.07;;;5.77;;
10313;SDS011;5202;49.138;10.090;2023-01-25T05:32:36;7.80;;;5.17;;
10313;SDS011;5202;49.138;10.090;2023-01-25T05:35:04;9.40;;;5.90;;
10313;SDS011;5202;49.138;10.090;2023-01-25T05:37:34;10.37;;;6.23;;
10313;SDS011;5202;49.138;10.090;2023-01-25T05:40:07;10.90;;;6.13;;
10313;SDS011;5202;49.138;10.090;2023-01-25T05:42:37;10.23;;;6.13;;
10313;SDS011;5202;49.138;10.090;2023-01-25T05:45:12;10.20;;;6.43;;
10313;SDS011;5202;49.138;10.090;2023-01-25T05:47:44;10.67;;;6.50;;
10313;SDS011;5202;49.138;10.090;2023-01-25T05:50:13;11.80;;;6.83;;
10313;SDS011;5202;49.138;10.090;2023-01-25T05:52:53;11.97;;;7.60;;
10313;SDS011;5202;49.138;10.090;2023-01-25T05:55:23;12.37;;;6.97;;
10313;SDS011;5202;49.138;10.090;2023-01-25T05:57:54;12.87;;;7.37;;
10313;SDS011;5202;49.138;10.090;2023-01-25T06:00:23;12.60;;;7.80;;
10313;SDS011;5202;49.138;10.090;2023-01-25T06:02:52;11.97;;;7.30;;
10313;SDS011;5202;49.138;10.090;2023-01-25T06:05:23;12.53;;;7.90;;
10313;SDS011;5202;49.138;10.090;2023-01-25T06:07:53;17.40;;;8.30;;
10313;SDS011;5202;49.138;10.090;2023-01-25T06:10:23;11.83;;;7.63;;
10313;SDS011;5202;49.138;10.090;2023-01-25T06:12:56;12.67;;;7.63;;
10313;SDS011;5202;49.138;10.090;2023-01-25T06:15:24;10.50;;;6.97;;
10313;SDS011;5202;49.138;10.090;2023-01-25T06:17:59;10.87;;;6.50;;
10313;SDS011;5202;49.138;10.090;2023-01-25T06:21:03;11.80;;;6.93;;
10313;SDS011;5202;49.138;10.090;2023-01-25T06:23:34;9.00;;;6.10;;
10313;SDS011;5202;49.138;10.090;2023-01-25T06:26:03;11.93;;;7.27;;
10313;SDS011;5202;49.138;10.090;2023-01-25T06:28:34;12.53;;;7.50;;
10313;SDS011;5202;49.138;10.090;2023-01-25T06:31:05;10.87;;;6.90;;
10313;SDS011;5202;49.138;10.090;2023-01-25T06:33:36;13.00;;;7.93;;
10313;SDS011;5202;49.138;10.090;2023-01-25T06:36:08;11.73;;;7.13;;
10313;SDS011;5202;49.138;10.090;2023-01-25T06:38:39;10.90;;;7.17;;
10313;SDS011;5202;49.138;10.090;2023-01-25T06:41:08;12.47;;;7.57;;
10313;SDS011;5202;49.138;10.090;2023-01-25T06:43:38;12.43;;;7.43;;
10313;SDS011;5202;49.138;10.090;2023-01-25T06:46:07;12.73;;;7.53;;
10313;SDS011;5202;49.138;10.090;2023-01-25T06:48:39;12.00;;;7.17;;
10313;SDS011;5202;49.138;10.090;2023-01-25T06:51:09;11.73;;;6.57;;
10313;SDS011;5202;49.138;10.090;2023-01-25T06:53:40;11.23;;;6.93;;
10313;SDS011;5202;49.138;10.090;2023-01-25T06:56:11;11.43;;;7.30;;
10313;SDS011;5202;49.138;10.090;2023-01-25T06:58:41;10.90;;;6.97;;
10313;SDS011;5202;49.138;10.090;2023-01-25T07:01:11;11.07;;;7.07;;
10313;SDS011;5202;49.138;10.090;2023-01-25T07:04:12;12.10;;;7.20;;
10313;SDS011;5202;49.138;10.090;2023-01-25T07:06:53;13.20;;;7.50;;
10313;SDS011;5202;49.138;10.090;2023-01-25T07:09:21;13.07;;;7.57;;
10313;SDS011;5202;49.138;10.090;2023-01-25T07:11:51;12.77;;;7.67;;
10313;SDS011;5202;49.138;10.090;2023-01-25T07:14:19;12.53;;;7.87;;
10313;SDS011;5202;49.138;10.090;2023-01-25T07:16:48;13.80;;;8.43;;
10313;SDS011;5202;49.138;10.090;2023-01-25T07:19:17;13.30;;;8.23;;
10313;SDS011;5202;49.138;10.090;2023-01-25T07:21:46;12.73;;;8.17;;
10313;SDS011;5202;49.138;10.090;2023-01-25T07:24:15;13.77;;;7.93;;
10313;SDS011;5202;49.138;10.090;2023-01-25T07:26:45;15.60;;;9.00;;
10313;SDS011;5202;49.138;10.090;2023-01-25T07:29:15;13.53;;;8.40;;
10313;SDS011;5202;49.138;10.090;2023-01-25T07:31:43;13.77;;;8.20;;
10313;SDS011;5202;49.138;10.090;2023-01-25T07:34:11;14.27;;;8.17;;
10313;SDS011;5202;49.138;10.090;2023-01-25T07:36:41;13.47;;;8.30;;
10313;SDS011;5202;49.138;10.090;2023-01-25T07:39:11;14.27;;;8.73;;
10313;SDS011;5202;49.138;10.090;2023-01-25T07:41:39;15.60;;;8.70;;
10313;SDS011;5202;49.138;10.090;2023-01-25T07:44:11;14.03;;;8.30;;
10313;SDS011;5202;49.138;10.090;2023-01-25T07:46:44;14.87;;;8.53;;
10313;SDS011;5202;49.138;10.090;2023-01-25T07:49:12;15.50;;;8.17;;
10313;SDS011;5202;49.138;10.090;2023-01-25T07:51:42;15.90;;;8.90;;
10313;SDS011;5202;49.138;10.090;2023-01-25T07:54:11;12.20;;;7.70;;
10313;SDS011;5202;49.138;10.090;2023-01-25T07:56:39;13.23;;;7.83;;
10313;SDS011;5202;49.138;10.090;2023-01-25T07:59:08;12.53;;;7.30;;
10313;SDS011;5202;49.138;10.090;2023-01-25T08:01:38;11.97;;;6.77;;
10313;SDS011;5202;49.138;10.090;2023-01-25T08:04:06;10.47;;;6.90;;
10313;SDS011;5202;49.138;10.090;2023-01-25T08:06:36;10.87;;;6.73;;
10313;SDS011;5202;49.138;10.090;2023-01-25T08:09:07;10.63;;;6.57;;
10313;SDS011;5202;49.138;10.090;2023-01-25T08:11:40;11.63;;;6.27;;
10313;SDS011;5202;49.138;10.090;2023-01-25T08:14:08;12.23;;;7.17;;
10313;SDS011;5202;49.138;10.090;2023-01-25T08:16:36;9.17;;;6.37;;
10313;SDS011;5202;49.138;10.090;2023-01-25T08:19:05;9.33;;;6.03;;
10313;SDS011;5202;49.138;10.090;2023-01-25T08:21:33;11.73;;;7.13;;
10313;SDS011;5202;49.138;10.090;2023-01-25T08:24:03;11.07;;;7.23;;
10313;SDS011;5202;49.138;10.090;2023-01-25T08:26:34;15.27;;;7.80;;
10313;SDS011;5202;49.138;10.090;2023-01-25T08:29:03;10.77;;;7.17;;
10313;SDS011;5202;49.138;10.090;2023-01-25T08:31:33;11.93;;;7.20;;
10313;SDS011;5202;49.138;10.090;2023-01-25T08:34:02;10.33;;;6.80;;
10313;SDS011;5202;49.138;10.090;2023-01-25T08:36:32;12.80;;;7.10;;
10313;SDS011;5202;49.138;10.090;2023-01-25T08:39:01;13.27;;;7.90;;
10313;SDS011;5202;49.138;10.090;2023-01-25T08:41:33;13.33;;;8.03;;
10313;SDS011;5202;49.138;10.090;2023-01-25T08:44:02;11.60;;;7.33;;
10313;SDS011;5202;49.138;10.090;2023-01-25T08:46:31;12.13;;;6.83;;
10313;SDS011;5202;49.138;10.090;2023-01-25T08:49:00;13.20;;;7.60;;
10313;SDS011;5202;49.138;10.090;2023-01-25T08:51:29;12.93;;;8.10;;
10313;SDS011;5202;49.138;10.090;2023-01-25T08:54:02;12.30;;;7.57;;
10313;SDS011;5202;49.138;10.090;2023-01-25T08:56:35;13.20;;;7.50;;
10313;SDS011;5202;49.138;10.090;2023-01-25T08:59:04;11.90;;;7.47;;
10313;SDS011;5202;49.138;10.090;2023-01-25T09:01:32;14.73;;;8.77;;
10313;SDS011;5202;49.138;10.090;2023-01-25T09:04:06;13.07;;;7.40;;
10313;SDS011;5202;49.138;10.090;2023-01-25T09:06:34;13.23;;;7.93;;
10313;SDS011;5202;49.138;10.090;2023-01-25T09:09:03;11.60;;;6.93;;
10313;SDS011;5202;49.138;10.090;2023-01-25T09:11:35;13.80;;;7.87;;
10313;SDS011;5202;49.138;10.090;2023-01-25T09:14:03;13.20;;;7.40;;
10313;SDS011;5202;49.138;10.090;2023-01-25T09:16:31;11.67;;;7.30;;
10313;SDS011;5202;49.138;10.090;2023-01-25T09:19:01;13.07;;;7.93;;
10313;SDS011;5202;49.138;10.090;2023-01-25T09:21:31;15.10;;;7.87;;
10313;SDS011;5202;49.138;10.090;2023-01-25T09:24:01;14.73;;;7.97;;
10313;SDS011;5202;49.138;10.090;2023-01-25T09:26:35;12.60;;;7.37;;
10313;SDS011;5202;49.138;10.090;2023-01-25T09:29:05;16.33;;;8.07;;
10313;SDS011;5202;49.138;10.090;2023-01-25T09:31:35;14.30;;;8.63;;
10313;SDS011;5202;49.138;10.090;2023-01-25T09:34:27;15.33;;;7.90;;
10313;SDS011;5202;49.138;10.090;2023-01-25T09:36:55;15.23;;;8.73;;
10313;SDS011;5202;49.138;10.090;2023-01-25T09:39:24;17.27;;;8.83;;
10313;SDS011;5202;49.138;10.090;2023-01-25T09:42:06;17.40;;;8.27;;
10313;SDS011;5202;49.138;10.090;2023-01-25T09:45:01;13.47;;;7.37;;
10313;SDS011;5202;49.138;10.090;2023-01-25T09:47:53;12.87;;;7.00;;
10313;SDS011;5202;49.138;10.090;2023-01-25T09:50:37;13.20;;;8.17;;
10313;SDS011;5202;49.138;10.090;2023-01-25T09:53:20;16.43;;;8.47;;
10313;SDS011;5202;49.138;10.090;2023-01-25T09:55:58;15.37;;;8.73;;
10313;SDS011;5202;49.138;10.090;2023-01-25T09:58:33;14.43;;;8.73;;
10313;SDS011;5202;49.138;10.090;2023-01-25T10:01:11;14.23;;;7.97;;
10313;SDS011;5202;49.138;10.090;2023-01-25T10:04:03;14.17;;;8.10;;
10313;SDS011;5202;49.138;10.090;2023-01-25T10:06:40;12.00;;;7.17;;
10313;SDS011;5202;49.138;10.090;2023-01-25T10:09:55;15.37;;;8.53;;
10313;SDS011;5202;49.138;10.090;2023-01-25T10:12:32;11.87;;;7.70;;
10313;SDS011;5202;49.138;10.090;2023-01-25T10:15:10;13.53;;;8.07;;
10313;SDS011;5202;49.138;10.090;2023-01-25T10:17:46;14.03;;;8.17;;
10313;SDS011;5202;49.138;10.090;2023-01-25T10:20:25;14.00;;;7.80;;
10313;SDS011;5202;49.138;10.090;2023-01-25T10:23:14;12.70;;;7.97;;
10313;SDS011;5202;49.138;10.090;2023-01-25T10:26:02;12.17;;;7.17;;
10313;SDS011;5202;49.138;10.090;2023-01-25T10:28:39;12.30;;;8.03;;
10313;SDS011;5202;49.138;10.090;2023-01-25T10:31:15;12.13;;;8.13;;
10313;SDS011;5202;49.138;10.090;2023-01-25T10:33:46;14.40;;;8.40;;
10313;SDS011;5202;49.138;10.090;2023-01-25T10:36:16;12.97;;;8.97;;
10313;SDS011;5202;49.138;10.090;2023-01-25T10:38:48;14.30;;;7.43;;
10313;SDS011;5202;49.138;10.090;2023-01-25T10:41:21;14.00;;;8.20;;
10313;SDS011;5202;49.138;10.090;2023-01-25T10:43:55;12.43;;;7.73;;
10313;SDS011;5202;49.138;10.090;2023-01-25T10:46:38;13.70;;;8.40;;
10313;SDS011;5202;49.138;10.090;2023-01-25T10:49:13;14.10;;;7.87;;
10313;SDS011;5202;49.138;10.090;2023-01-25T10:51:51;15.10;;;7.90;;
10313;SDS011;5202;49.138;10.090;2023-01-25T10:54:19;15.43;;;8.83;;
10313;SDS011;5202;49.138;10.090;2023-01-25T10:56:50;14.77;;;8.07;;
10313;SDS011;5202;49.138;10.090;2023-01-25T10:59:20;14.77;;;8.27;;
10313;SDS011;5202;49.138;10.090;2023-01-25T11:01:54;15.30;;;8.30;;
10313;SDS011;5202;49.138;10.090;2023-01-25T11:04:31;13.10;;;7.90;;
10313;SDS011;5202;49.138;10.090;2023-01-25T11:07:01;13.67;;;8.07;;
10313;SDS011;5202;49.138;10.090;2023-01-25T11:09:35;12.33;;;7.47;;
10313;SDS011;5202;49.138;10.090;2023-01-25T11:12:14;18.33;;;11.27;;
10313;SDS011;5202;49.138;10.090;2023-01-25T11:14:45;16.47;;;9.10;;
10313;SDS011;5202;49.138;10.090;2023-01-25T11:17:21;16.83;;;10.33;;
10313;SDS011;5202;49.138;10.090;2023-01-25T11:22:49;16.93;;;9.07;;
10313;SDS011;5202;49.138;10.090;2023-01-25T11:25:26;14.90;;;8.90;;
10313;SDS011;5202;49.138;10.090;2023-01-25T11:28:10;16.97;;;9.37;;
10313;SDS011;5202;49.138;10.090;2023-01-25T11:30:44;17.73;;;8.20;;
10313;SDS011;5202;49.138;10.090;2023-01-25T11:33:15;16.70;;;8.93;;
10313;SDS011;5202;49.138;10.090;2023-01-25T11:35:58;14.87;;;9.17;;
10313;SDS011;5202;49.138;10.090;2023-01-25T11:38:42;15.37;;;9.03;;
10313;SDS011;5202;49.138;10.090;2023-01-25T11:41:22;14.10;;;8.30;;
10313;SDS011;5202;49.138;10.090;2023-01-25T11:44:08;17.10;;;10.10;;
10313;SDS011;5202;49.138;10.090;2023-01-25T11:47:08;15.27;;;9.07;;
10313;SDS011;5202;49.138;10.090;2023-01-25T11:49:52;16.33;;;9.33;;
10313;SDS011;5202;49.138;10.090;2023-01-25T11:52:36;14.07;;;8.23;;
10313;SDS011;5202;49.138;10.090;2023-01-25T11:55:22;16.33;;;9.40;;
10313;SDS011;5202;49.138;10.090;2023-01-25T12:00:53;16.47;;;9.03;;
10313;SDS011;5202;49.138;10.090;2023-01-25T12:06:54;16.07;;;9.20;;
10313;SDS011;5202;49.138;10.090;2023-01-25T12:09:36;17.33;;;9.77;;
10313;SDS011;5202;49.138;10.090;2023-01-25T12:12:29;14.43;;;8.73;;
10313;SDS011;5202;49.138;10.090;2023-01-25T12:15:14;14.10;;;8.80;;
10313;SDS011;5202;49.138;10.090;2023-01-25T12:18:01;16.20;;;9.30;;
10313;SDS011;5202;49.138;10.090;2023-01-25T12:21:02;18.43;;;9.73;;
10313;SDS011;5202;49.138;10.090;2023-01-25T12:23:37;19.50;;;9.47;;
10313;SDS011;5202;49.138;10.090;2023-01-25T12:26:21;16.03;;;8.97;;
10313;SDS011;5202;49.138;10.090;2023-01-25T12:28:56;17.00;;;10.13;;
10313;SDS011;5202;49.138;10.090;2023-01-25T12:31:33;17.93;;;9.87;;
10313;SDS011;5202;49.138;10.090;2023-01-25T12:34:10;17.13;;;9.97;;
10313;SDS011;5202;49.138;10.090;2023-01-25T12:36:46;17.37;;;9.80;;
10313;SDS011;5202;49.138;10.090;2023-01-25T12:39:18;16.10;;;8.43;;
10313;SDS011;5202;49.138;10.090;2023-01-25T12:41:54;18.40;;;9.50;;
10313;SDS011;5202;49.138;10.090;2023-01-25T12:44:28;14.30;;;8.07;;
10313;SDS011;5202;49.138;10.090;2023-01-25T12:47:04;15.17;;;8.83;;
10313;SDS011;5202;49.138;10.090;2023-01-25T12:49:41;17.37;;;9.43;;
10313;SDS011;5202;49.138;10.090;2023-01-25T12:52:18;17.20;;;9.57;;
10313;SDS011;5202;49.138;10.090;2023-01-25T12:54:52;17.80;;;9.77;;
10313;SDS011;5202;49.138;10.090;2023-01-25T12:57:25;14.50;;;9.30;;
10313;SDS011;5202;49.138;10.090;2023-01-25T13:00:04;16.30;;;10.07;;
10313;SDS011;5202;49.138;10.090;2023-01-25T13:05:50;17.13;;;9.43;;
10313;SDS011;5202;49.138;10.090;2023-01-25T13:08:26;18.20;;;9.90;;
10313;SDS011;5202;49.138;10.090;2023-01-25T13:11:08;17.77;;;8.90;;
10313;SDS011;5202;49.138;10.090;2023-01-25T13:13:41;16.57;;;9.87;;
10313;SDS011;5202;49.138;10.090;2023-01-25T13:19:12;16.57;;;8.97;;
10313;SDS011;5202;49.138;10.090;2023-01-25T13:21:47;16.23;;;9.07;;
10313;SDS011;5202;49.138;10.090;2023-01-25T13:24:18;13.73;;;8.40;;
10313;SDS011;5202;49.138;10.090;2023-01-25T13:26:58;15.63;;;8.23;;
10313;SDS011;5202;49.138;10.090;2023-01-25T13:32:52;16.40;;;9.27;;
10313;SDS011;5202;49.138;10.090;2023-01-25T13:35:27;20.60;;;9.73;;
10313;SDS011;5202;49.138;10.090;2023-01-25T13:38:23;18.90;;;10.10;;
10313;SDS011;5202;49.138;10.090;2023-01-25T13:41:12;15.33;;;9.67;;
10313;SDS011;5202;49.138;10.090;2023-01-25T13:43:45;17.90;;;9.50;;
10313;SDS011;5202;49.138;10.090;2023-01-25T13:46:16;17.83;;;9.73;;
10313;SDS011;5202;49.138;10.090;2023-01-25T13:48:56;19.00;;;11.17;;
10313;SDS011;5202;49.138;10.090;2023-01-25T13:51:30;18.77;;;9.70;;
10313;SDS011;5202;49.138;10.090;2023-01-25T13:54:03;17.73;;;9.70;;
10313;SDS011;5202;49.138;10.090;2023-01-25T13:56:32;15.17;;;9.13;;
10313;SDS011;5202;49.138;10.090;2023-01-25T13:59:04;15.20;;;8.77;;
10313;SDS011;5202;49.138;10.090;2023-01-25T14:01:33;15.23;;;9.30;;
10313;SDS011;5202;49.138;10.090;2023-01-25T14:04:09;13.93;;;8.80;;
10313;SDS011;5202;49.138;10.090;2023-01-25T14:06:39;14.73;;;8.97;;
10313;SDS011;5202;49.138;10.090;2023-01-25T14:09:10;14.63;;;9.33;;
10313;SDS011;5202;49.138;10.090;2023-01-25T14:11:43;16.10;;;9.20;;
10313;SDS011;5202;49.138;10.090;2023-01-25T14:14:19;14.60;;;8.63;;
10313;SDS011;5202;49.138;10.090;2023-01-25T14:17:12;17.27;;;9.57;;
10313;SDS011;5202;49.138;10.090;2023-01-25T14:19:44;16.97;;;10.37;;
10313;SDS011;5202;49.138;10.090;2023-01-25T14:22:19;17.87;;;10.30;;
10313;SDS011;5202;49.138;10.090;2023-01-25T14:25:01;19.93;;;11.43;;
10313;SDS011;5202;49.138;10.090;2023-01-25T14:27:41;17.30;;;11.37;;
10313;SDS011;5202;49.138;10.090;2023-01-25T14:30:17;18.70;;;10.30;;
10313;SDS011;5202;49.138;10.090;2023-01-25T14:32:48;22.97;;;11.73;;
10313;SDS011;5202;49.138;10.090;2023-01-25T14:35:35;21.60;;;10.43;;
10313;SDS011;5202;49.138;10.090;2023-01-25T14:38:25;17.77;;;10.20;;
10313;SDS011;5202;49.138;10.090;2023-01-25T14:41:01;18.93;;;9.57;;
10313;SDS011;5202;49.138;10.090;2023-01-25T14:43:38;18.03;;;10.17;;
10313;SDS011;5202;49.138;10.090;2023-01-25T14:46:18;17.30;;;10.27;;
10313;SDS011;5202;49.138;10.090;2023-01-25T14:49:05;17.60;;;10.40;;
10313;SDS011;5202;49.138;10.090;2023-01-25T14:51:53;16.30;;;9.57;;
10313;SDS011;5202;49.138;10.090;2023-01-25T14:54:26;15.93;;;9.87;;
10313;SDS011;5202;49.138;10.090;2023-01-25T14:56:57;19.17;;;9.87;;
10313;SDS011;5202;49.138;10.090;2023-01-25T14:59:29;16.10;;;9.23;;
10313;SDS011;5202;49.138;10.090;2023-01-25T15:05:01;16.13;;;9.63;;
10313;SDS011;5202;49.138;10.090;2023-01-25T15:07:45;19.43;;;10.83;;
10313;SDS011;5202;49.138;10.090;2023-01-25T15:10:18;20.07;;;10.07;;
10313;SDS011;5202;49.138;10.090;2023-01-25T15:12:56;16.77;;;10.43;;
10313;SDS011;5202;49.138;10.090;2023-01-25T15:15:48;17.70;;;9.93;;
10313;SDS011;5202;49.138;10.090;2023-01-25T15:21:14;16.57;;;10.23;;
10313;SDS011;5202;49.138;10.090;2023-01-25T15:23:45;16.60;;;9.40;;
10313;SDS011;5202;49.138;10.090;2023-01-25T15:26:17;17.03;;;9.40;;
10313;SDS011;5202;49.138;10.090;2023-01-25T15:28:47;16.43;;;9.50;;
10313;SDS011;5202;49.138;10.090;2023-01-25T15:31:18;17.77;;;10.30;;
10313;SDS011;5202;49.138;10.090;2023-01-25T15:33:54;16.83;;;9.53;;
10313;SDS011;5202;49.138;10.090;2023-01-25T15:36:24;16.83;;;9.90;;